Time;durP1;ratioP1;P1;durP2;ratioP2;P2;SDS_P1;SDS_P2;PMS_P1;PMS_P2;Temp;Humidity;BMP_temperature;BMP_pressure;BME280_temperature;BME280_humidity;BME280_pressure;Samples;Min_cycle;Max_cycle;Signal;HPM_P1;HPM_P2
2021/11/27 00:03:27;;;;;;;6.70;3.93;;;;;2.60;98011.00;;;;10474126;28;20201;-83
2021/11/27 00:08:29;;;;;;;6.47;3.87;;;;;2.60;98000.00;;;;10476210;28;20225;-84
2021/11/27 00:13:32;;;;;;;6.40;4.73;;;;;2.60;98004.00;;;;10488121;28;20197;-83
2021/11/27 00:18:34;;;;;;;11.17;6.20;;;;;2.60;98011.00;;;;10470994;28;20204;-83
2021/11/27 00:23:38;;;;;;;10.57;6.17;;;;;2.50;97992.00;;;;10502041;28;20209;-83
2021/11/27 00:28:41;;;;;;;15.57;7.33;;;;;2.50;97999.00;;;;10487781;28;20216;-83
2021/11/27 00:33:45;;;;;;;23.77;10.33;;;;;2.40;97998.00;;;;10508124;28;20266;-83
2021/11/27 00:38:47;;;;;;;31.33;12.30;;;;;2.50;98013.00;;;;10473151;28;20206;-83
2021/11/27 00:43:49;;;;;;;26.47;11.60;;;;;2.60;98002.00;;;;10446274;28;20198;-83
2021/11/27 00:48:51;;;;;;;20.07;9.50;;;;;2.60;97987.00;;;;10478904;28;20204;-83
2021/11/27 00:53:53;;;;;;;15.07;8.10;;;;;2.70;97986.00;;;;10506199;28;20196;-83
2021/11/27 00:58:55;;;;;;;12.70;6.93;;;;;2.80;97989.00;;;;10474794;28;20239;-83
2021/11/27 01:03:58;;;;;;;10.83;6.00;;;;;2.80;97970.00;;;;10468399;28;20225;-83
2021/11/27 01:09:04;;;;;;;11.53;6.43;;;;;2.90;97973.00;;;;10479033;28;20196;-83
2021/11/27 01:14:13;;;;;;;11.90;6.47;;;;;2.90;97961.00;;;;10463811;28;20206;-83
2021/11/27 01:19:15;;;;;;;8.00;4.93;;;;;2.90;97966.00;;;;10501138;28;20201;-83
2021/11/27 01:24:19;;;;;;;10.27;6.17;;;;;2.90;97971.00;;;;10478392;28;20213;-83
2021/11/27 01:29:22;;;;;;;9.37;5.27;;;;;2.90;97969.00;;;;10473216;28;20204;-83
2021/11/27 01:34:24;;;;;;;8.53;5.73;;;;;2.90;97972.00;;;;10485946;28;20219;-82
2021/11/27 01:39:27;;;;;;;10.53;5.90;;;;;2.90;97973.00;;;;10484341;28;20208;-83
2021/11/27 01:44:30;;;;;;;7.70;5.40;;;;;2.80;97964.00;;;;10462582;28;20688;-82
2021/11/27 01:49:33;;;;;;;9.50;5.17;;;;;2.70;97966.00;;;;10478348;28;20196;-83
2021/11/27 01:54:36;;;;;;;7.77;4.33;;;;;2.60;97976.00;;;;10484526;28;20207;-82
2021/11/27 01:59:40;;;;;;;10.47;4.80;;;;;2.50;97972.00;;;;10461317;28;20229;-82
2021/11/27 02:04:43;;;;;;;6.00;4.57;;;;;2.40;97983.00;;;;10466182;28;20271;-82
2021/11/27 02:09:45;;;;;;;7.97;4.43;;;;;2.20;97977.00;;;;10471262;28;20201;-82
2021/11/27 02:14:48;;;;;;;9.60;5.37;;;;;2.20;97980.00;;;;10470278;28;20197;-82
2021/11/27 02:19:56;;;;;;;6.97;4.20;;;;;2.10;97981.00;;;;10471278;28;20211;-82
2021/11/27 02:25:11;;;;;;;8.70;5.43;;;;;2.10;97984.00;;;;10492511;28;20208;-82
2021/11/27 02:30:15;;;;;;;9.27;6.20;;;;;2.00;97983.00;;;;10493568;28;20204;-83
2021/11/27 02:35:17;;;;;;;6.83;5.50;;;;;2.00;97984.00;;;;10503096;28;20200;-82
2021/11/27 02:40:20;;;;;;;11.07;5.83;;;;;2.10;97973.00;;;;10485178;28;20283;-82
2021/11/27 02:45:22;;;;;;;9.87;6.73;;;;;2.10;97980.00;;;;10478687;28;20239;-82
2021/11/27 02:50:24;;;;;;;13.57;6.90;;;;;2.10;97975.00;;;;10492892;27;20209;-82
2021/11/27 02:55:27;;;;;;;15.00;8.17;;;;;2.00;97975.00;;;;10506482;28;20200;-82
2021/11/27 03:00:29;;;;;;;23.03;8.40;;;;;2.00;97981.00;;;;10491221;28;20200;-82
2021/11/27 03:05:31;;;;;;;23.70;8.27;;;;;2.00;97987.00;;;;10496919;28;20217;-82
2021/11/27 03:10:33;;;;;;;15.03;8.43;;;;;1.90;97992.00;;;;10471142;28;20197;-82
2021/11/27 03:15:41;;;;;;;14.47;6.77;;;;;1.90;97986.00;;;;10502786;27;20737;-82
2021/11/27 03:20:43;;;;;;;16.03;7.27;;;;;1.80;98003.00;;;;10471906;28;20659;-82
2021/11/27 03:25:45;;;;;;;18.07;8.20;;;;;1.80;97993.00;;;;10490719;28;20232;-82
2021/11/27 03:30:48;;;;;;;17.33;7.07;;;;;1.70;97998.00;;;;10472779;28;20269;-82
2021/11/27 03:35:50;;;;;;;22.70;7.07;;;;;1.70;98000.00;;;;10492295;28;20205;-82
2021/11/27 03:40:54;;;;;;;24.90;7.33;;;;;1.70;98000.00;;;;10482766;28;20204;-82
2021/11/27 03:45:57;;;;;;;19.20;6.17;;;;;1.60;97999.00;;;;10460799;28;20231;-82
2021/11/27 03:51:03;;;;;;;20.93;5.63;;;;;1.60;98004.00;;;;10464433;28;20205;-82
2021/11/27 03:56:09;;;;;;;21.27;6.50;;;;;1.50;98005.00;;;;10477995;28;20243;-82
2021/11/27 04:01:14;;;;;;;15.87;5.57;;;;;1.40;97999.00;;;;10507883;28;20598;-82
2021/11/27 04:06:18;;;;;;;15.50;6.63;;;;;1.30;97999.00;;;;10461733;28;20223;-82
2021/11/27 04:11:22;;;;;;;13.10;5.67;;;;;1.20;97999.00;;;;10486977;28;20262;-82
2021/11/27 04:16:25;;;;;;;16.10;5.50;;;;;1.10;98005.00;;;;10513313;28;20299;-82
2021/11/27 04:21:27;;;;;;;12.77;5.87;;;;;1.10;97994.00;;;;10471722;28;20678;-82
2021/11/27 04:26:30;;;;;;;14.33;7.37;;;;;0.90;98002.00;;;;10504497;28;20590;-82
2021/11/27 04:31:32;;;;;;;18.30;6.73;;;;;0.80;97999.00;;;;10487493;28;20230;-81
2021/11/27 04:36:34;;;;;;;16.23;7.43;;;;;0.70;97998.00;;;;10477186;28;20201;-81
2021/11/27 04:41:36;;;;;;;22.80;7.73;;;;;0.70;98006.00;;;;10457644;28;20764;-81
2021/11/27 04:46:38;;;;;;;22.37;8.43;;;;;0.60;98003.00;;;;10461435;28;20248;-80
2021/11/27 04:51:40;;;;;;;14.13;7.17;;;;;0.60;98030.00;;;;10455080;28;20283;-80
2021/11/27 04:56:43;;;;;;;24.53;7.67;;;;;0.50;98031.00;;;;10476641;28;20250;-80
2021/11/27 05:01:45;;;;;;;24.77;8.93;;;;;0.40;98037.00;;;;10501159;28;20917;-80
2021/11/27 05:06:48;;;;;;;18.53;7.87;;;;;0.30;98036.00;;;;10491939;28;20215;-80
2021/11/27 05:11:50;;;;;;;17.07;7.20;;;;;0.30;98041.00;;;;10501951;28;20599;-80
2021/11/27 05:16:52;;;;;;;27.33;8.33;;;;;0.20;98035.00;;;;10490500;28;20205;-80
2021/11/27 05:21:54;;;;;;;25.80;8.37;;;;;0.20;98043.00;;;;10485676;28;20295;-80
2021/11/27 05:26:56;;;;;;;27.97;8.00;;;;;0.20;98057.00;;;;10486204;28;20216;-79
2021/11/27 05:37:36;;;;;;;17.73;8.03;;;;;0.10;98079.00;;;;10479440;28;20193;-79
2021/11/27 05:42:39;;;;;;;22.53;8.87;;;;;0.10;98086.00;;;;10483442;28;20250;-79
2021/11/27 05:47:40;;;;;;;26.20;8.90;;;;;0.20;98091.00;;;;10506745;28;20250;-80
2021/11/27 05:52:48;;;;;;;15.97;8.13;;;;;0.20;98096.00;;;;10472174;28;20190;-80
2021/11/27 05:57:50;;;;;;;20.73;8.27;;;;;0.20;98103.00;;;;10493450;28;20193;-80
2021/11/27 06:02:53;;;;;;;20.20;8.67;;;;;0.10;98110.00;;;;10474323;28;20667;-79
2021/11/27 06:07:55;;;;;;;20.33;7.50;;;;;0.00;98109.00;;;;10506758;28;20220;-79
2021/11/27 06:12:57;;;;;;;20.60;9.00;;;;;-0.10;98112.00;;;;10486515;28;20713;-80
2021/11/27 06:17:59;;;;;;;17.03;8.90;;;;;-0.10;98120.00;;;;10486261;28;20203;-79
2021/11/27 06:23:02;;;;;;;22.33;8.03;;;;;-0.20;98133.00;;;;10490991;28;20205;-79
2021/11/27 06:28:04;;;;;;;18.57;8.17;;;;;-0.20;98140.00;;;;10490316;28;20282;-79
2021/11/27 06:33:06;;;;;;;18.80;7.30;;;;;-0.30;98149.00;;;;10493523;28;20225;-80
2021/11/27 06:38:08;;;;;;;22.50;8.47;;;;;-0.30;98146.00;;;;10454765;28;20232;-79
2021/11/27 06:43:10;;;;;;;20.27;9.47;;;;;-0.30;98158.00;;;;10481647;28;20208;-79
2021/11/27 06:48:41;;;;;;;17.90;7.53;;;;;-0.30;98172.00;;;;10503224;28;20231;-80
2021/11/27 06:53:45;;;;;;;20.47;8.10;;;;;-0.20;98176.00;;;;10495301;28;20201;-79
2021/11/27 06:58:48;;;;;;;18.47;7.57;;;;;-0.20;98172.00;;;;10488711;28;20200;-80
2021/11/27 07:04:12;;;;;;;20.07;8.63;;;;;-0.20;98182.00;;;;10481349;28;20197;-79
2021/11/27 07:09:34;;;;;;;21.40;7.73;;;;;-0.20;98178.00;;;;10485784;28;20708;-79
2021/11/27 07:14:43;;;;;;;22.07;8.30;;;;;-0.10;98183.00;;;;10479112;28;20193;-79
2021/11/27 07:19:45;;;;;;;18.53;7.53;;;;;0.10;98191.00;;;;10510347;28;20250;-80
2021/11/27 07:24:47;;;;;;;22.63;9.07;;;;;0.30;98210.00;;;;10482508;28;20660;-79
2021/11/27 07:29:55;;;;;;;20.57;8.33;;;;;0.30;98229.00;;;;10486074;28;20622;-79
2021/11/27 07:34:57;;;;;;;25.23;9.37;;;;;0.30;98248.00;;;;10460235;28;20695;-79
2021/11/27 07:39:59;;;;;;;18.53;9.03;;;;;0.40;98256.00;;;;10487900;28;20210;-80
2021/11/27 07:45:01;;;;;;;24.30;10.40;;;;;0.40;98268.00;;;;10470612;28;20197;-80
2021/11/27 07:50:33;;;;;;;29.10;12.87;;;;;0.50;98286.00;;;;10442671;28;20205;-80
2021/11/27 07:55:48;;;;;;;23.47;9.77;;;;;0.70;98290.00;;;;10487832;28;20295;-79
2021/11/27 08:00:50;;;;;;;30.13;10.33;;;;;0.80;98303.00;;;;10484678;28;20196;-80
2021/11/27 08:05:52;;;;;;;22.10;9.00;;;;;0.90;98314.00;;;;10468598;28;20208;-80
2021/11/27 08:10:57;;;;;;;26.93;10.37;;;;;1.00;98309.00;;;;10472259;28;20644;-80
2021/11/27 08:16:00;;;;;;;22.03;9.43;;;;;1.10;98323.00;;;;10496941;28;20293;-80
2021/11/27 08:21:04;;;;;;;24.37;10.30;;;;;1.20;98325.00;;;;10483299;28;20246;-81
2021/11/27 08:26:22;;;;;;;24.13;8.93;;;;;1.30;98337.00;;;;10456880;28;20231;-81
2021/11/27 08:31:24;;;;;;;21.37;9.23;;;;;1.40;98345.00;;;;10446563;28;20213;-80
2021/11/27 08:36:26;;;;;;;19.90;9.57;;;;;1.50;98365.00;;;;10458837;28;20219;-80
2021/11/27 08:41:28;;;;;;;19.60;9.77;;;;;1.50;98375.00;;;;10510456;28;20205;-80
2021/11/27 08:46:30;;;;;;;18.50;9.27;;;;;1.50;98374.00;;;;10470093;28;20221;-80
2021/11/27 08:51:37;;;;;;;23.73;10.57;;;;;1.60;98397.00;;;;10465034;28;20821;-81
2021/11/27 08:56:39;;;;;;;20.67;10.30;;;;;1.60;98405.00;;;;10452455;28;20641;-81
2021/11/27 09:01:43;;;;;;;21.43;8.83;;;;;1.70;98404.00;;;;10504039;28;20208;-81
2021/11/27 09:06:45;;;;;;;24.23;9.97;;;;;1.80;98418.00;;;;10484042;28;20213;-82
2021/11/27 09:11:50;;;;;;;19.90;9.93;;;;;2.00;98416.00;;;;10468455;28;20564;-82
2021/11/27 09:16:53;;;;;;;20.90;9.87;;;;;2.10;98433.00;;;;10466709;28;20254;-82
2021/11/27 09:21:55;;;;;;;21.57;11.00;;;;;2.30;98439.00;;;;10516703;28;20193;-82
2021/11/27 09:26:57;;;;;;;24.40;11.00;;;;;2.50;98465.00;;;;10510718;28;20281;-82
2021/11/27 09:31:59;;;;;;;20.90;10.83;;;;;2.70;98469.00;;;;10504116;28;20220;-82
2021/11/27 09:37:13;;;;;;;26.73;15.37;;;;;2.90;98479.00;;;;10464302;28;20204;-82
2021/11/27 09:42:17;;;;;;;30.63;13.53;;;;;3.10;98486.00;;;;10500207;28;20227;-82
2021/11/27 09:47:20;;;;;;;27.20;13.07;;;;;3.10;98488.00;;;;10533165;28;20216;-82
2021/11/27 09:52:22;;;;;;;23.93;11.80;;;;;3.00;98492.00;;;;10465789;28;20205;-83
2021/11/27 09:57:26;;;;;;;16.90;9.97;;;;;3.10;98492.00;;;;10472717;28;20246;-83
2021/11/27 10:02:29;;;;;;;24.77;11.00;;;;;3.30;98501.00;;;;10488937;28;20232;-83
2021/11/27 10:07:50;;;;;;;24.20;11.10;;;;;3.70;98507.00;;;;10468172;28;20240;-83
2021/11/27 10:12:52;;;;;;;16.43;9.67;;;;;3.80;98514.00;;;;10490537;28;20225;-83
2021/11/27 10:17:54;;;;;;;26.40;10.80;;;;;4.10;98521.00;;;;10491030;28;20560;-83
2021/11/27 10:22:56;;;;;;;20.43;8.97;;;;;4.10;98521.00;;;;10491558;28;20206;-82
2021/11/27 10:28:17;;;;;;;16.63;9.50;;;;;4.20;98528.00;;;;10482487;28;20718;-82
2021/11/27 10:33:20;;;;;;;18.47;9.60;;;;;4.90;98525.00;;;;10491447;28;20266;-82
2021/11/27 10:38:34;;;;;;;14.10;9.20;;;;;5.30;98524.00;;;;10487599;28;20664;-82
2021/11/27 10:43:37;;;;;;;11.97;7.10;;;;;4.90;98531.00;;;;10488507;28;20196;-82
2021/11/27 10:48:56;;;;;;;11.67;6.53;;;;;5.20;98536.00;;;;10495052;28;20224;-82
2021/11/27 10:54:00;;;;;;;15.93;6.33;;;;;5.10;98534.00;;;;10481925;28;20262;-81
2021/11/27 10:59:06;;;;;;;19.70;7.43;;;;;5.80;98536.00;;;;10487905;28;20258;-82
2021/11/27 11:04:15;;;;;;;9.37;5.17;;;;;6.20;98535.00;;;;10475475;28;20212;-82
2021/11/27 11:09:17;;;;;;;13.20;4.80;;;;;6.50;98541.00;;;;10470936;28;20643;-81
2021/11/27 11:14:25;;;;;;;8.07;5.20;;;;;6.60;98559.00;;;;10487776;28;20200;-81
2021/11/27 11:19:31;;;;;;;11.63;4.60;;;;;6.80;98562.00;;;;10496798;28;20292;-82
2021/11/27 11:24:33;;;;;;;8.37;4.30;;;;;6.90;98554.00;;;;10471285;28;20683;-80
2021/11/27 11:29:47;;;;;;;14.60;5.23;;;;;7.10;98557.00;;;;10491696;28;20565;-81
2021/11/27 11:34:50;;;;;;;8.57;4.13;;;;;7.30;98566.00;;;;10483644;28;20228;-81
2021/11/27 11:39:54;;;;;;;11.83;4.60;;;;;7.50;98566.00;;;;10493259;28;20250;-81
2021/11/27 11:44:57;;;;;;;13.93;7.13;;;;;7.60;98566.00;;;;10473001;28;20275;-81
2021/11/27 11:50:08;;;;;;;10.33;4.20;;;;;7.20;98569.00;;;;10491242;28;20240;-81
2021/11/27 11:55:17;;;;;;;10.87;4.87;;;;;7.10;98573.00;;;;10511572;28;20721;-81
2021/11/27 12:00:33;;;;;;;7.57;4.10;;;;;6.50;98580.00;;;;10515232;28;20200;-81
2021/11/27 12:05:56;;;;;;;8.70;3.93;;;;;6.30;98563.00;;;;10483144;28;20205;-81
2021/11/27 12:10:58;;;;;;;14.53;4.53;;;;;6.70;98559.00;;;;10477239;28;20199;-80
2021/11/27 12:16:10;;;;;;;7.13;3.83;;;;;6.50;98570.00;;;;10476165;28;20205;-81
2021/11/27 12:21:14;;;;;;;12.00;4.03;;;;;6.70;98563.00;;;;10452165;28;20683;-80
2021/11/27 12:26:21;;;;;;;9.50;3.63;;;;;6.90;98561.00;;;;10489456;28;20245;-81
2021/11/27 12:31:25;;;;;;;7.07;3.07;;;;;7.20;98555.00;;;;10495035;28;20209;-81
2021/11/27 12:36:32;;;;;;;4.17;3.03;;;;;7.20;98562.00;;;;10465971;28;20201;-81
2021/11/27 12:41:36;;;;;;;9.03;3.60;;;;;7.10;98564.00;;;;10482791;28;20204;-81
2021/11/27 12:46:39;;;;;;;7.37;2.90;;;;;6.80;98570.00;;;;10469107;28;20212;-81
2021/11/27 12:51:41;;;;;;;9.10;3.53;;;;;6.90;98570.00;;;;10465593;28;20209;-81
2021/11/27 12:56:43;;;;;;;7.07;3.20;;;;;7.10;98569.00;;;;10457469;28;20945;-81
2021/11/27 13:01:46;;;;;;;9.20;3.63;;;;;7.00;98579.00;;;;10467687;28;20227;-81
2021/11/27 13:06:50;;;;;;;6.03;3.83;;;;;7.00;98572.00;;;;10502397;28;20677;-81
2021/11/27 13:11:57;;;;;;;7.67;4.50;;;;;6.70;98571.00;;;;10485929;28;20197;-81
2021/11/27 13:17:06;;;;;;;8.67;4.57;;;;;6.50;98582.00;;;;10484371;28;20205;-81
2021/11/27 13:22:19;;;;;;;8.23;4.57;;;;;6.40;98569.00;;;;10457311;28;20192;-81
2021/11/27 13:27:25;;;;;;;10.43;4.37;;;;;6.40;98581.00;;;;10500072;28;20229;-81
2021/11/27 13:32:54;;;;;;;8.20;4.27;;;;;6.30;98581.00;;;;10493675;28;20741;-80
2021/11/27 13:37:58;;;;;;;10.27;5.10;;;;;6.10;98591.00;;;;10481109;28;20236;-80
2021/11/27 13:43:11;;;;;;;6.93;4.40;;;;;5.90;98586.00;;;;10488921;28;20201;-81
2021/11/27 13:48:14;;;;;;;14.90;5.80;;;;;5.70;98583.00;;;;10466708;28;20208;-81
2021/11/27 13:53:19;;;;;;;8.43;4.67;;;;;5.60;98578.00;;;;10480259;28;20201;-81
2021/11/27 13:58:25;;;;;;;11.03;7.50;;;;;5.50;98580.00;;;;10479550;28;20212;-80
2021/11/27 14:03:33;;;;;;;13.40;6.80;;;;;5.50;98566.00;;;;10488523;28;20203;-80
2021/11/27 14:08:35;;;;;;;13.77;9.03;;;;;5.40;98570.00;;;;10497098;28;20683;-80
2021/11/27 14:13:56;;;;;;;12.70;7.57;;;;;5.40;98577.00;;;;10452815;28;20660;-80
2021/11/27 14:19:11;;;;;;;10.47;6.17;;;;;5.50;98579.00;;;;10475849;28;20637;-80
2021/11/27 14:24:18;;;;;;;9.53;6.53;;;;;5.50;98579.00;;;;10488540;28;20274;-80
2021/11/27 14:29:21;;;;;;;9.57;5.20;;;;;5.40;98580.00;;;;10515192;28;20227;-80
2021/11/27 14:34:32;;;;;;;9.43;6.20;;;;;5.40;98580.00;;;;10489389;28;20863;-80
2021/11/27 14:39:35;;;;;;;8.80;5.70;;;;;5.30;98585.00;;;;10472464;28;20231;-80
2021/11/27 14:44:37;;;;;;;10.57;6.03;;;;;5.20;98594.00;;;;10505999;28;20306;-80
2021/11/27 14:49:42;;;;;;;14.13;4.73;;;;;5.10;98602.00;;;;10447295;28;20229;-80
2021/11/27 14:54:52;;;;;;;8.50;5.33;;;;;5.00;98610.00;;;;10498320;28;20200;-80
2021/11/27 15:00:04;;;;;;;8.87;4.40;;;;;4.90;98603.00;;;;10472271;28;20201;-80
2021/11/27 15:05:08;;;;;;;7.17;4.60;;;;;4.90;98608.00;;;;10495736;28;20210;-80
2021/11/27 15:10:13;;;;;;;10.87;5.23;;;;;4.80;98608.00;;;;10507724;28;20691;-79
2021/11/27 15:15:15;;;;;;;6.63;4.90;;;;;4.80;98620.00;;;;10504486;28;20207;-79
2021/11/27 15:20:20;;;;;;;9.17;5.47;;;;;4.70;98622.00;;;;10471995;28;20204;-80
2021/11/27 15:25:24;;;;;;;9.17;5.90;;;;;4.60;98609.00;;;;10480330;28;20224;-79
2021/11/27 15:30:27;;;;;;;11.30;6.10;;;;;4.60;98617.00;;;;10485951;28;20274;-79
2021/11/27 15:35:31;;;;;;;10.07;6.00;;;;;4.50;98613.00;;;;10483972;28;20247;-80
2021/11/27 15:40:35;;;;;;;9.57;6.33;;;;;4.50;98615.00;;;;10463948;28;20234;-80
2021/11/27 15:45:37;;;;;;;14.87;7.57;;;;;4.40;98617.00;;;;10487372;28;20216;-80
2021/11/27 15:50:42;;;;;;;15.20;7.43;;;;;4.40;98614.00;;;;10466207;28;20229;-80
2021/11/27 15:55:44;;;;;;;11.33;7.30;;;;;4.30;98617.00;;;;10484774;28;20221;-79
2021/11/27 16:00:46;;;;;;;11.63;7.90;;;;;4.30;98630.00;;;;10478551;28;20201;-79
2021/11/27 16:05:48;;;;;;;10.73;7.47;;;;;4.30;98634.00;;;;10496078;28;20865;-79
2021/11/27 16:10:54;;;;;;;10.63;7.40;;;;;4.20;98627.00;;;;10502039;28;20227;-79
2021/11/27 16:15:56;;;;;;;11.90;8.47;;;;;4.20;98634.00;;;;10460742;28;20269;-79
2021/11/27 16:20:58;;;;;;;12.50;7.87;;;;;4.20;98635.00;;;;10489446;28;20209;-80
2021/11/27 16:26:01;;;;;;;13.43;7.50;;;;;4.20;98642.00;;;;10492318;28;20185;-80
2021/11/27 16:31:04;;;;;;;10.80;7.23;;;;;4.20;98639.00;;;;10480231;28;20630;-80
2021/11/27 16:36:09;;;;;;;16.30;8.47;;;;;4.20;98642.00;;;;10469912;28;20193;-81
2021/11/27 16:41:11;;;;;;;13.10;8.27;;;;;4.10;98647.00;;;;10502654;28;20200;-81
2021/11/27 16:46:17;;;;;;;8.07;6.10;;;;;4.00;98661.00;;;;10482088;28;20201;-82
2021/11/27 16:51:25;;;;;;;7.03;5.37;;;;;3.90;98651.00;;;;10468454;28;20251;-83
2021/11/27 16:56:27;;;;;;;8.33;5.27;;;;;3.70;98655.00;;;;10480093;28;20201;-82
2021/11/27 17:01:29;;;;;;;7.37;5.90;;;;;3.60;98662.00;;;;10464332;28;20291;-81
2021/11/27 17:06:32;;;;;;;10.03;6.43;;;;;3.60;98661.00;;;;10462629;28;20192;-82
2021/11/27 17:11:36;;;;;;;8.40;5.97;;;;;3.50;98671.00;;;;10454124;28;20259;-81
2021/11/27 17:16:39;;;;;;;9.80;6.60;;;;;3.50;98663.00;;;;10501675;28;20212;-81
2021/11/27 17:21:41;;;;;;;9.73;7.27;;;;;3.50;98679.00;;;;10488988;28;20201;-81
2021/11/27 17:26:43;;;;;;;12.73;9.07;;;;;3.50;98683.00;;;;10484509;28;20268;-81
2021/11/27 17:31:46;;;;;;;11.53;8.80;;;;;3.40;98680.00;;;;10468986;28;20223;-81
2021/11/27 17:36:48;;;;;;;15.93;10.97;;;;;3.40;98680.00;;;;10472392;28;20205;-82
2021/11/27 17:41:50;;;;;;;17.23;11.80;;;;;3.40;98675.00;;;;10471493;28;20211;-82
2021/11/27 17:46:52;;;;;;;10.07;8.73;;;;;3.40;98684.00;;;;10502696;28;20225;-82
2021/11/27 17:51:54;;;;;;;12.10;7.83;;;;;3.40;98676.00;;;;10475230;28;20207;-82
2021/11/27 17:57:00;;;;;;;9.93;7.93;;;;;3.30;98678.00;;;;10507027;28;20242;-82
2021/11/27 18:02:04;;;;;;;10.43;8.13;;;;;3.30;98691.00;;;;10473620;28;20197;-82
2021/11/27 18:07:08;;;;;;;11.53;9.03;;;;;3.30;98689.00;;;;10486057;28;20213;-81
2021/11/27 18:12:10;;;;;;;12.20;8.87;;;;;3.30;98701.00;;;;10474646;28;20217;-81
2021/11/27 18:17:13;;;;;;;13.53;9.23;;;;;3.40;98699.00;;;;10457947;28;20212;-81
2021/11/27 18:22:15;;;;;;;21.40;15.03;;;;;3.40;98710.00;;;;10505327;28;20205;-79
2021/11/27 18:27:20;;;;;;;16.33;9.87;;;;;3.40;98712.00;;;;10504768;28;20298;-81
2021/11/27 18:32:24;;;;;;;21.40;12.87;;;;;3.40;98717.00;;;;10521199;28;20208;-82
2021/11/27 18:37:27;;;;;;;16.00;11.87;;;;;3.30;98720.00;;;;10488669;28;20236;-81
2021/11/27 18:42:29;;;;;;;18.40;12.33;;;;;3.30;98725.00;;;;10504445;28;20205;-81
2021/11/27 18:47:31;;;;;;;15.40;10.93;;;;;3.30;98727.00;;;;10485928;28;20679;-82
2021/11/27 18:52:33;;;;;;;25.20;16.33;;;;;3.20;98740.00;;;;10483487;28;20262;-81
2021/11/27 18:57:35;;;;;;;14.80;9.77;;;;;3.20;98732.00;;;;10469217;28;20671;-81
2021/11/27 19:02:37;;;;;;;16.17;10.37;;;;;3.20;98738.00;;;;10505784;28;20204;-81
2021/11/27 19:07:39;;;;;;;26.10;14.93;;;;;3.20;98737.00;;;;10486255;28;20217;-81
2021/11/27 19:12:43;;;;;;;23.47;12.37;;;;;3.20;98743.00;;;;10498770;28;20297;-81
2021/11/27 19:17:45;;;;;;;20.13;11.50;;;;;3.20;98737.00;;;;10495908;28;20207;-81
2021/11/27 19:22:47;;;;;;;19.73;10.93;;;;;3.20;98741.00;;;;10483366;28;20205;-81
2021/11/27 19:27:52;;;;;;;18.67;9.77;;;;;3.20;98744.00;;;;10487602;28;20271;-81
2021/11/27 19:32:55;;;;;;;19.80;12.97;;;;;3.20;98736.00;;;;10445319;28;20244;-81
2021/11/27 19:37:58;;;;;;;24.00;14.83;;;;;3.20;98736.00;;;;10466244;28;20201;-81
2021/11/27 19:43:00;;;;;;;21.63;14.93;;;;;3.20;98739.00;;;;10499114;28;20205;-82
2021/11/27 19:48:09;;;;;;;25.57;14.83;;;;;3.30;98750.00;;;;10494426;28;20225;-82
2021/11/27 19:53:12;;;;;;;25.23;13.87;;;;;3.30;98752.00;;;;10484408;28;20290;-82
2021/11/27 19:58:15;;;;;;;27.23;14.43;;;;;3.30;98747.00;;;;10453030;28;20228;-81
2021/11/27 20:03:18;;;;;;;21.77;13.37;;;;;3.30;98761.00;;;;10470937;28;20679;-81
2021/11/27 20:08:21;;;;;;;21.97;14.03;;;;;3.30;98754.00;;;;10443483;28;20208;-82
2021/11/27 20:13:38;;;;;;;22.07;13.20;;;;;3.30;98763.00;;;;10464924;28;20203;-82
2021/11/27 20:18:43;;;;;;;24.97;13.63;;;;;3.30;98776.00;;;;10497993;28;20204;-83
2021/11/27 20:23:48;;;;;;;24.97;14.33;;;;;3.30;98767.00;;;;10488600;28;20731;-82
2021/11/27 20:28:50;;;;;;;20.23;13.43;;;;;3.40;98773.00;;;;10484740;28;20221;-83
2021/11/27 20:33:53;;;;;;;27.63;15.73;;;;;3.40;98788.00;;;;10484038;28;20212;-82
2021/11/27 20:38:55;;;;;;;25.63;15.30;;;;;3.40;98791.00;;;;10483667;28;20225;-82
2021/11/27 20:43:57;;;;;;;28.50;15.87;;;;;3.40;98797.00;;;;10488061;28;20196;-82
2021/11/27 20:49:00;;;;;;;31.70;15.93;;;;;3.40;98807.00;;;;10486000;28;20217;-82
2021/11/27 20:54:03;;;;;;;24.90;15.77;;;;;3.30;98797.00;;;;10488498;28;20214;-81
2021/11/27 20:59:08;;;;;;;24.77;15.67;;;;;3.30;98801.00;;;;10472044;28;20216;-82
2021/11/27 21:04:10;;;;;;;25.27;16.00;;;;;3.30;98788.00;;;;10460646;28;20331;-82
2021/11/27 21:09:12;;;;;;;21.40;14.90;;;;;3.40;98796.00;;;;10494642;28;20221;-81
2021/11/27 21:14:14;;;;;;;18.40;14.53;;;;;3.40;98779.00;;;;10488260;28;20212;-82
2021/11/27 21:19:18;;;;;;;24.03;14.30;;;;;3.40;98777.00;;;;10486364;28;20227;-81
2021/11/27 21:24:24;;;;;;;28.00;15.07;;;;;3.30;98787.00;;;;10471644;28;20750;-82
2021/11/27 21:29:40;;;;;;;19.37;12.13;;;;;3.30;98795.00;;;;10475903;28;20220;-81
2021/11/27 21:34:50;;;;;;;19.20;12.83;;;;;3.20;98797.00;;;;10482576;28;20740;-81
2021/11/27 21:39:52;;;;;;;22.00;12.80;;;;;3.20;98804.00;;;;10472546;28;20189;-82
2021/11/27 21:44:54;;;;;;;18.60;13.30;;;;;3.10;98803.00;;;;10496348;28;20194;-81
2021/11/27 21:49:58;;;;;;;22.60;14.63;;;;;3.00;98809.00;;;;10466074;28;20910;-81
2021/11/27 21:55:00;;;;;;;21.73;15.40;;;;;2.90;98820.00;;;;10448525;28;20193;-82
2021/11/27 22:00:05;;;;;;;22.23;15.37;;;;;2.90;98819.00;;;;10480367;28;20197;-81
2021/11/27 22:05:13;;;;;;;29.00;17.63;;;;;3.00;98817.00;;;;10476206;28;20203;-81
2021/11/27 22:10:16;;;;;;;25.53;15.77;;;;;3.10;98813.00;;;;10476178;28;20315;-81
2021/11/27 22:15:18;;;;;;;25.10;17.10;;;;;3.10;98812.00;;;;10476355;28;20201;-81
2021/11/27 22:20:20;;;;;;;27.80;18.00;;;;;3.20;98819.00;;;;10493690;28;20541;-81
2021/11/27 22:25:22;;;;;;;31.23;19.47;;;;;3.20;98816.00;;;;10470684;28;21070;-81
2021/11/27 22:30:24;;;;;;;29.83;19.00;;;;;3.20;98818.00;;;;10489668;28;20224;-82
2021/11/27 22:35:26;;;;;;;30.73;20.37;;;;;3.30;98826.00;;;;10455045;28;20200;-81
2021/11/27 22:40:32;;;;;;;36.33;21.00;;;;;3.30;98826.00;;;;10453519;28;20196;-81
2021/11/27 22:45:35;;;;;;;35.03;21.40;;;;;3.30;98829.00;;;;10472236;28;20200;-81
2021/11/27 22:50:36;;;;;;;36.63;22.50;;;;;3.30;98820.00;;;;10469784;28;20220;-82
2021/11/27 22:55:38;;;;;;;35.97;22.33;;;;;3.40;98830.00;;;;10491139;28;20254;-81
2021/11/27 23:01:08;;;;;;;41.67;24.23;;;;;3.40;98825.00;;;;10462149;28;20201;-81
2021/11/27 23:06:14;;;;;;;39.90;22.57;;;;;3.40;98830.00;;;;10474800;28;20267;-81
2021/11/27 23:11:22;;;;;;;42.03;23.67;;;;;3.40;98824.00;;;;10451546;28;20256;-81
2021/11/27 23:16:26;;;;;;;45.40;24.67;;;;;3.40;98829.00;;;;10482767;28;20207;-81
2021/11/27 23:21:37;;;;;;;45.07;24.47;;;;;3.40;98816.00;;;;10477180;28;20226;-81
2021/11/27 23:26:40;;;;;;;41.80;25.20;;;;;3.40;98826.00;;;;10473411;28;20196;-82
2021/11/27 23:31:43;;;;;;;40.57;24.97;;;;;3.50;98821.00;;;;10477323;28;20228;-82
2021/11/27 23:36:45;;;;;;;45.13;27.83;;;;;3.50;98831.00;;;;10492379;28;20197;-81
2021/11/27 23:41:47;;;;;;;40.93;22.83;;;;;3.50;98825.00;;;;10490823;28;20212;-81
2021/11/27 23:46:50;;;;;;;52.63;28.30;;;;;3.50;98828.00;;;;10486033;28;20734;-81
2021/11/27 23:52:00;;;;;;;48.90;26.23;;;;;3.50;98812.00;;;;10474907;28;20276;-81
2021/11/27 23:57:07;;;;;;;48.10;28.57;;;;;3.60;98822.00;;;;10477304;28;20205;-81
